Terminal Aerodrome Forecast
Issued by NWS Blacksburg, VA

Current Version | Previous Version | Text Only | Print | Product List | Glossary On
Versions: 1 2 3 4 5 6 7 8 9 10 11 12 13
000
FTUS41 KRNK 282329
TAFLYH
TAF
KLYH 282329Z 2900/2924 17004KT P6SM BKN250
     FM290700 00000KT P6SM OVC100
     FM291000 VRB03KT P6SM OVC060
     FM291500 03003KT 5SM -RA OVC030
     FM291900 05005KT 4SM RA BR OVC020=

USA.gov is the U.S. government's official web portal to all federal, state and local government web resources and services.